createdAt,value
2023-03-18T00:01:16.640Z,2.63
2023-03-18T00:03:44.078Z,3.03
2023-03-18T00:06:12.445Z,3.50
2023-03-18T00:08:41.146Z,4.40
2023-03-18T00:11:10.073Z,3.47
2023-03-18T00:13:37.797Z,3.47
2023-03-18T00:16:06.691Z,3.20
2023-03-18T00:18:34.449Z,3.50
2023-03-18T00:21:02.011Z,2.63
2023-03-18T00:23:29.712Z,3.10
2023-03-18T00:25:57.928Z,3.00
2023-03-18T00:28:25.530Z,2.87
2023-03-18T00:30:52.864Z,2.87
2023-03-18T00:33:20.253Z,3.20
2023-03-18T00:35:48.220Z,3.00
2023-03-18T00:38:20.928Z,3.20
2023-03-18T00:41:02.088Z,3.63
2023-03-18T00:43:33.652Z,3.47
2023-03-18T00:46:01.482Z,3.40
2023-03-18T00:48:29.839Z,3.00
2023-03-18T00:50:57.650Z,2.87
2023-03-18T00:53:26.230Z,3.20
2023-03-18T00:55:53.862Z,3.00
2023-03-18T00:58:21.131Z,2.97
2023-03-18T01:00:48.751Z,2.70
2023-03-18T01:03:16.143Z,2.90
2023-03-18T01:05:44.002Z,2.83
2023-03-18T01:08:11.252Z,2.20
2023-03-18T01:10:39.085Z,2.20
2023-03-18T01:13:06.531Z,4.03
2023-03-18T01:15:33.899Z,6.57
2023-03-18T01:18:01.407Z,2.60
2023-03-18T01:20:29.550Z,7.87
2023-03-18T01:22:57.098Z,2.40
2023-03-18T01:25:28.712Z,8.50
2023-03-18T01:27:56.145Z,4.60
2023-03-18T01:30:23.905Z,2.73
2023-03-18T01:32:51.345Z,1.87
2023-03-18T01:35:20.151Z,1.13
2023-03-18T01:37:47.701Z,1.30
2023-03-18T01:40:16.242Z,1.40
2023-03-18T01:42:45.569Z,1.47
2023-03-18T01:45:13.067Z,1.20
2023-03-18T01:47:40.658Z,1.60
2023-03-18T01:50:08.069Z,1.60
2023-03-18T01:52:36.491Z,2.47
2023-03-18T01:55:06.426Z,2.20
2023-03-18T01:57:34.431Z,1.20
2023-03-18T02:00:02.105Z,3.97
2023-03-18T02:02:30.219Z,1.90
2023-03-18T02:04:59.211Z,1.70
2023-03-18T02:07:28.394Z,1.47
2023-03-18T02:09:57.714Z,2.40
2023-03-18T02:12:26.684Z,1.30
2023-03-18T02:14:55.203Z,1.10
2023-03-18T02:17:25.079Z,1.20
2023-03-18T02:20:12.663Z,2.00
2023-03-18T02:22:43.438Z,1.30
2023-03-18T02:25:27.237Z,1.30
2023-03-18T02:28:03.630Z,1.40
2023-03-18T02:30:42.700Z,1.30
2023-03-18T02:33:10.885Z,1.33
2023-03-18T02:35:39.786Z,1.30
2023-03-18T02:38:07.187Z,1.67
2023-03-18T02:40:39.583Z,1.30
2023-03-18T02:43:25.959Z,1.20
2023-03-18T02:45:56.401Z,1.30
2023-03-18T02:48:24.501Z,1.30
2023-03-18T02:50:52.208Z,1.40
2023-03-18T02:53:19.506Z,1.50
2023-03-18T02:55:47.459Z,1.30
2023-03-18T02:58:14.686Z,1.23
2023-03-18T03:00:41.948Z,1.40
2023-03-18T03:03:09.371Z,1.37
2023-03-18T03:05:37.101Z,1.40
2023-03-18T03:08:05.067Z,1.20
2023-03-18T03:10:32.532Z,1.30
2023-03-18T03:13:00.912Z,1.20
2023-03-18T03:15:28.700Z,1.23
2023-03-18T03:17:56.060Z,1.50
2023-03-18T03:20:23.740Z,1.43
2023-03-18T03:22:51.038Z,1.27
2023-03-18T03:25:19.534Z,1.50
2023-03-18T03:27:48.368Z,1.70
2023-03-18T03:30:16.585Z,1.43
2023-03-18T03:32:44.002Z,1.40
2023-03-18T03:35:14.026Z,1.30
2023-03-18T03:37:42.340Z,1.20
2023-03-18T03:40:10.973Z,1.20
2023-03-18T03:42:38.465Z,1.40
2023-03-18T03:45:07.710Z,1.37
2023-03-18T03:47:36.218Z,1.37
2023-03-18T03:50:03.543Z,1.30
2023-03-18T03:52:31.054Z,1.27
2023-03-18T03:55:00.727Z,1.40
2023-03-18T03:57:28.058Z,1.30
2023-03-18T03:59:56.397Z,1.40
2023-03-18T04:02:24.436Z,1.30
2023-03-18T04:04:53.585Z,1.30
2023-03-18T04:07:21.950Z,1.20
2023-03-18T04:09:49.476Z,1.30
2023-03-18T04:12:19.681Z,1.23
2023-03-18T04:14:48.335Z,1.40
2023-03-18T04:17:17.039Z,1.17
2023-03-18T04:19:44.311Z,1.23
2023-03-18T04:22:11.614Z,1.33
2023-03-18T04:24:38.999Z,1.47
2023-03-18T04:27:06.919Z,1.27
2023-03-18T04:29:34.188Z,1.50
2023-03-18T04:32:01.499Z,1.60
2023-03-18T04:34:28.803Z,1.60
2023-03-18T04:36:56.154Z,1.40
2023-03-18T04:39:24.090Z,1.20
2023-03-18T04:41:51.821Z,1.37
2023-03-18T04:44:19.419Z,1.50
2023-03-18T04:46:46.755Z,1.27
2023-03-18T04:49:13.986Z,1.50
2023-03-18T04:51:41.364Z,1.23
2023-03-18T04:54:08.812Z,1.20
2023-03-18T04:56:36.175Z,1.30
2023-03-18T04:59:03.668Z,1.53
2023-03-18T05:01:31.345Z,1.50
2023-03-18T05:03:58.709Z,2.90
2023-03-18T05:06:27.900Z,2.10
2023-03-18T05:08:55.345Z,1.73
2023-03-18T05:11:22.650Z,1.50
2023-03-18T05:13:50.410Z,1.40
2023-03-18T05:16:18.494Z,1.23
2023-03-18T05:18:46.893Z,1.90
2023-03-18T05:21:14.172Z,2.07
2023-03-18T05:23:41.985Z,3.00
2023-03-18T05:26:09.998Z,5.53
2023-03-18T05:28:37.844Z,4.23
2023-03-18T05:31:05.440Z,2.17
2023-03-18T05:33:33.531Z,3.53
2023-03-18T05:36:01.012Z,7.10
2023-03-18T05:38:28.709Z,4.03
2023-03-18T05:40:56.222Z,4.70
2023-03-18T05:43:24.829Z,11.17
2023-03-18T05:45:52.177Z,12.00
2023-03-18T05:48:21.296Z,25.13
2023-03-18T05:50:48.592Z,34.00
2023-03-18T05:53:16.859Z,59.17
2023-03-18T05:55:44.414Z,31.20
2023-03-18T05:58:11.888Z,24.97
2023-03-18T06:00:39.414Z,16.73
2023-03-18T06:03:06.837Z,12.63
2023-03-18T06:05:35.185Z,13.23
2023-03-18T06:08:03.127Z,12.53
2023-03-18T06:10:31.507Z,7.43
2023-03-18T06:12:58.816Z,7.40
2023-03-18T06:15:26.990Z,3.67
2023-03-18T06:17:54.299Z,2.83
2023-03-18T06:20:22.082Z,2.20
2023-03-18T06:22:49.968Z,1.70
2023-03-18T06:25:21.302Z,1.57
2023-03-18T06:27:49.029Z,1.63
2023-03-18T06:30:17.514Z,3.53
2023-03-18T06:32:45.005Z,4.10
2023-03-18T06:35:12.906Z,2.30
2023-03-18T06:37:40.608Z,1.90
2023-03-18T06:40:09.060Z,1.80
2023-03-18T06:42:37.774Z,2.10
2023-03-18T06:45:05.330Z,1.80
2023-03-18T06:47:33.046Z,2.10
2023-03-18T06:50:03.653Z,2.67
2023-03-18T06:52:31.226Z,2.20
2023-03-18T06:55:00.459Z,1.90
2023-03-18T06:57:27.744Z,2.57
2023-03-18T06:59:55.185Z,2.60
2023-03-18T07:02:23.690Z,2.70
2023-03-18T07:04:51.061Z,2.37
2023-03-18T07:07:18.550Z,2.23
2023-03-18T07:09:46.214Z,1.70
2023-03-18T07:12:14.315Z,2.10
2023-03-18T07:14:43.140Z,1.70
2023-03-18T07:17:10.827Z,1.73
2023-03-18T07:19:38.094Z,1.80
2023-03-18T07:22:05.591Z,1.70
2023-03-18T07:24:33.087Z,1.90
2023-03-18T07:27:00.433Z,1.70
2023-03-18T07:29:27.854Z,1.43
2023-03-18T07:31:55.143Z,1.33
2023-03-18T07:34:22.812Z,1.80
2023-03-18T07:36:50.446Z,1.70
2023-03-18T07:39:17.747Z,1.60
2023-03-18T07:41:45.024Z,1.73
2023-03-18T07:44:13.174Z,1.40
2023-03-18T07:46:40.719Z,1.63
2023-03-18T07:49:08.008Z,1.30
2023-03-18T07:51:35.227Z,1.50
2023-03-18T07:54:04.117Z,1.67
2023-03-18T07:56:31.712Z,1.37
2023-03-18T07:58:59.683Z,1.40
2023-03-18T08:01:27.788Z,1.37
2023-03-18T08:03:55.568Z,1.33
2023-03-18T08:06:23.181Z,1.33
2023-03-18T08:08:50.459Z,1.40
2023-03-18T08:11:17.973Z,1.30
2023-03-18T08:13:45.251Z,1.40
2023-03-18T08:16:12.613Z,1.40
2023-03-18T08:18:40.129Z,1.23
2023-03-18T08:21:07.872Z,1.30
2023-03-18T08:23:36.137Z,1.20
2023-03-18T08:26:03.656Z,1.33
2023-03-18T08:28:31.028Z,1.37
2023-03-18T08:30:59.473Z,1.13
2023-03-18T08:33:27.869Z,1.17
2023-03-18T08:35:56.416Z,1.10
2023-03-18T08:38:24.208Z,1.10
2023-03-18T08:40:51.617Z,1.30
2023-03-18T08:43:22.284Z,1.00
2023-03-18T08:45:56.695Z,1.30
2023-03-18T08:48:24.398Z,1.40
2023-03-18T08:50:51.743Z,1.20
2023-03-18T08:53:19.632Z,1.13
2023-03-18T08:55:47.411Z,1.47
2023-03-18T08:58:18.840Z,1.13
2023-03-18T09:00:46.753Z,1.10
2023-03-18T09:03:15.921Z,1.30
2023-03-18T09:05:43.828Z,1.10
2023-03-18T09:08:11.683Z,1.20
2023-03-18T09:10:38.930Z,1.30
2023-03-18T09:13:06.179Z,1.47
2023-03-18T09:15:34.845Z,1.00
2023-03-18T09:18:11.744Z,1.30
2023-03-18T09:20:40.274Z,1.20
2023-03-18T09:23:08.260Z,1.27
2023-03-18T09:25:36.537Z,1.10
2023-03-18T09:28:03.737Z,1.37
2023-03-18T09:30:32.003Z,1.60
2023-03-18T09:32:59.906Z,1.10
2023-03-18T09:35:31.826Z,1.77
2023-03-18T09:37:59.850Z,1.13
2023-03-18T09:40:28.349Z,1.27
2023-03-18T09:43:14.495Z,1.40
2023-03-18T09:46:00.907Z,1.17
2023-03-18T09:48:32.106Z,1.00
2023-03-18T09:50:59.383Z,1.10
2023-03-18T09:53:26.813Z,3.67
2023-03-18T09:55:57.554Z,1.53
2023-03-18T09:58:40.384Z,1.10
2023-03-18T10:01:09.812Z,1.30
2023-03-18T10:03:37.525Z,1.27
2023-03-18T10:06:18.982Z,1.50
2023-03-18T10:09:02.218Z,1.20
2023-03-18T10:11:32.852Z,1.27
2023-03-18T10:14:09.352Z,1.27
2023-03-18T10:16:43.220Z,1.20
2023-03-18T10:19:10.587Z,1.50
2023-03-18T10:21:41.638Z,1.55
2023-03-18T10:24:17.097Z,1.50
2023-03-18T10:26:58.267Z,1.08
2023-03-18T10:29:43.100Z,1.38
2023-03-18T10:32:10.557Z,1.27
2023-03-18T10:34:37.810Z,1.52
2023-03-18T10:37:24.749Z,1.30
2023-03-18T10:39:53.155Z,1.15
2023-03-18T10:42:22.457Z,1.10
2023-03-18T10:44:51.032Z,1.08
2023-03-18T10:47:40.972Z,1.60
2023-03-18T10:50:09.199Z,1.35
2023-03-18T10:52:45.881Z,1.40
2023-03-18T10:55:17.905Z,1.48
2023-03-18T10:57:45.835Z,1.50
2023-03-18T11:00:28.683Z,1.40
2023-03-18T11:02:57.278Z,1.38
2023-03-18T11:05:33.874Z,1.35
2023-03-18T11:08:03.668Z,1.67
2023-03-18T11:10:38.204Z,1.30
2023-03-18T11:13:08.368Z,1.42
2023-03-18T11:15:40.808Z,1.45
2023-03-18T11:18:14.318Z,1.40
2023-03-18T11:20:47.799Z,1.35
2023-03-18T11:23:20.730Z,1.77
2023-03-18T11:25:51.477Z,1.20
2023-03-18T11:28:23.339Z,1.60
2023-03-18T11:30:54.919Z,1.42
2023-03-18T11:33:24.643Z,1.50
2023-03-18T11:36:06.154Z,1.65
2023-03-18T11:38:35.529Z,1.75
2023-03-18T11:41:09.133Z,1.77
2023-03-18T11:43:38.016Z,1.60
2023-03-18T11:46:07.321Z,1.60
2023-03-18T11:48:36.842Z,1.70
2023-03-18T11:51:07.430Z,1.50
2023-03-18T11:53:40.581Z,1.70
2023-03-18T11:56:08.081Z,1.52
2023-03-18T11:58:54.730Z,1.40
2023-03-18T12:01:28.310Z,1.38
2023-03-18T12:04:14.398Z,1.40
2023-03-18T12:06:56.105Z,1.30
2023-03-18T12:09:37.171Z,1.40
2023-03-18T12:12:14.282Z,1.45
2023-03-18T12:14:56.924Z,1.30
2023-03-18T12:17:43.536Z,1.40
2023-03-18T12:20:23.320Z,1.55
2023-03-18T12:23:12.268Z,1.70
2023-03-18T12:26:00.206Z,1.50
2023-03-18T12:28:41.302Z,1.70
2023-03-18T12:31:18.328Z,1.58
2023-03-18T12:33:57.528Z,1.80
2023-03-18T12:36:33.207Z,2.50
2023-03-18T12:39:35.682Z,2.47
2023-03-18T12:42:15.814Z,2.05
2023-03-18T12:44:58.532Z,2.00
2023-03-18T12:47:48.469Z,2.40
2023-03-18T12:50:16.234Z,2.38
2023-03-18T12:52:49.370Z,3.15
2023-03-18T12:55:35.070Z,2.08
2023-03-18T12:58:05.406Z,2.20
2023-03-18T13:00:38.602Z,2.42
2023-03-18T13:03:25.061Z,2.17
2023-03-18T13:05:57.218Z,2.40
2023-03-18T13:08:40.747Z,2.30
2023-03-18T13:11:20.172Z,2.50
2023-03-18T13:13:50.893Z,2.40
2023-03-18T13:16:20.166Z,2.40
2023-03-18T13:18:50.526Z,2.30
2023-03-18T13:21:21.621Z,1.75
2023-03-18T13:24:04.760Z,1.70
2023-03-18T13:26:50.965Z,1.33
2023-03-18T13:29:37.970Z,1.63
2023-03-18T13:32:08.532Z,1.50
2023-03-18T13:34:55.192Z,1.73
2023-03-18T13:37:22.769Z,1.83
2023-03-18T13:40:09.609Z,1.77
2023-03-18T13:42:38.603Z,1.50
2023-03-18T13:45:13.064Z,1.70
2023-03-18T13:47:42.534Z,1.83
2023-03-18T13:50:19.086Z,1.88
2023-03-18T13:52:47.963Z,1.70
2023-03-18T13:55:24.467Z,2.00
2023-03-18T13:58:18.891Z,1.90
2023-03-18T14:01:09.226Z,1.60
2023-03-18T14:03:42.879Z,1.90
2023-03-18T14:06:19.968Z,1.73
2023-03-18T14:08:49.244Z,1.73
2023-03-18T14:11:28.809Z,1.75
2023-03-18T14:14:04.149Z,1.98
2023-03-18T14:16:49.119Z,1.98
2023-03-18T14:19:19.428Z,1.90
2023-03-18T14:21:49.320Z,1.90
2023-03-18T14:24:17.242Z,2.00
2023-03-18T14:26:49.499Z,1.73
2023-03-18T14:29:24.443Z,1.80
2023-03-18T14:31:58.027Z,1.67
2023-03-18T14:34:27.898Z,1.65
2023-03-18T14:36:58.493Z,1.92
2023-03-18T14:39:40.063Z,1.70
2023-03-18T14:42:13.749Z,1.55
2023-03-18T14:44:47.233Z,2.13
2023-03-18T14:47:37.830Z,2.10
2023-03-18T14:50:26.344Z,1.75
2023-03-18T14:53:14.592Z,1.70
2023-03-18T14:55:43.108Z,2.03
2023-03-18T14:58:17.598Z,1.90
2023-03-18T15:00:46.292Z,2.20
2023-03-18T15:03:27.887Z,2.40
2023-03-18T15:05:58.273Z,2.08
2023-03-18T15:08:37.410Z,1.80
2023-03-18T15:11:13.094Z,2.35
2023-03-18T15:13:42.705Z,2.90
2023-03-18T15:16:11.498Z,2.70
2023-03-18T15:18:39.981Z,3.40
2023-03-18T15:21:13.508Z,2.92
2023-03-18T15:24:01.288Z,2.97
2023-03-18T15:26:34.435Z,2.78
2023-03-18T15:29:04.403Z,3.22
2023-03-18T15:31:32.045Z,3.25
2023-03-18T15:34:07.747Z,2.92
2023-03-18T15:36:42.373Z,3.25
2023-03-18T15:39:19.727Z,3.28
2023-03-18T15:41:47.191Z,3.10
2023-03-18T15:44:16.816Z,3.13
2023-03-18T15:46:47.325Z,2.78
2023-03-18T15:49:14.611Z,2.60
2023-03-18T15:51:48.004Z,3.03
2023-03-18T15:54:29.942Z,2.78
2023-03-18T15:57:11.304Z,2.80
2023-03-18T15:59:38.871Z,2.10
2023-03-18T16:02:18.603Z,2.90
2023-03-18T16:04:48.328Z,2.90
2023-03-18T16:07:21.116Z,2.92
2023-03-18T16:09:48.982Z,2.88
2023-03-18T16:12:20.630Z,3.33
2023-03-18T16:14:49.223Z,3.25
2023-03-18T16:17:20.440Z,2.97
2023-03-18T16:19:53.850Z,3.35
2023-03-18T16:22:22.974Z,2.97
2023-03-18T16:24:50.672Z,3.00
2023-03-18T16:27:33.856Z,3.05
2023-03-18T16:30:01.160Z,3.30
2023-03-18T16:32:29.049Z,3.13
2023-03-18T16:34:56.422Z,3.17
2023-03-18T16:37:25.987Z,2.83
2023-03-18T16:40:00.681Z,2.90
2023-03-18T16:42:30.337Z,2.58
2023-03-18T16:44:57.918Z,2.83
2023-03-18T16:47:27.439Z,2.85
2023-03-18T16:49:55.756Z,2.70
2023-03-18T16:52:23.424Z,2.42
2023-03-18T16:54:50.724Z,2.60
2023-03-18T16:57:19.633Z,2.85
2023-03-18T16:59:50.965Z,2.75
2023-03-18T17:02:28.095Z,3.70
2023-03-18T17:04:55.642Z,3.50
2023-03-18T17:07:23.261Z,2.60
2023-03-18T17:09:50.942Z,2.20
2023-03-18T17:12:18.508Z,2.50
2023-03-18T17:14:51.104Z,2.67
2023-03-18T17:17:25.012Z,2.50
2023-03-18T17:19:52.261Z,3.15
2023-03-18T17:22:32.853Z,3.78
2023-03-18T17:25:02.159Z,3.40
2023-03-18T17:27:32.777Z,3.10
2023-03-18T17:30:00.921Z,4.13
2023-03-18T17:32:28.223Z,4.03
2023-03-18T17:34:56.312Z,3.95
2023-03-18T17:37:23.751Z,4.68
2023-03-18T17:39:51.262Z,8.85
2023-03-18T17:42:28.857Z,44.55
2023-03-18T17:44:57.718Z,61.78
2023-03-18T17:47:25.032Z,67.05
2023-03-18T17:49:52.280Z,46.75
2023-03-18T17:52:21.068Z,19.00
2023-03-18T17:54:48.591Z,7.50
2023-03-18T17:57:18.318Z,4.00
2023-03-18T17:59:49.164Z,3.25
2023-03-18T18:02:18.724Z,3.03
2023-03-18T18:04:46.294Z,3.03
2023-03-18T18:07:21.923Z,2.20
2023-03-18T18:09:49.757Z,2.90
2023-03-18T18:12:25.459Z,4.60
2023-03-18T18:14:52.784Z,4.20
2023-03-18T18:17:20.702Z,4.03
2023-03-18T18:19:49.221Z,3.37
2023-03-18T18:22:26.736Z,2.77
2023-03-18T18:24:54.613Z,3.47
2023-03-18T18:27:22.006Z,2.73
2023-03-18T18:29:51.878Z,3.17
2023-03-18T18:32:21.838Z,3.20
2023-03-18T18:34:49.344Z,3.40
2023-03-18T18:37:16.620Z,3.80
2023-03-18T18:39:43.914Z,4.17
2023-03-18T18:42:12.453Z,4.60
2023-03-18T18:44:40.393Z,3.87
2023-03-18T18:47:18.334Z,4.10
2023-03-18T18:49:46.927Z,3.60
2023-03-18T18:52:14.452Z,4.27
2023-03-18T18:54:42.110Z,5.67
2023-03-18T18:57:23.241Z,5.03
2023-03-18T18:59:50.628Z,4.90
2023-03-18T19:02:31.825Z,2.90
2023-03-18T19:05:00.733Z,5.40
2023-03-18T19:07:29.385Z,4.47
2023-03-18T19:09:56.887Z,4.40
2023-03-18T19:12:24.420Z,4.47
2023-03-18T19:14:52.178Z,3.53
2023-03-18T19:17:20.775Z,3.20
2023-03-18T19:19:48.168Z,2.60
2023-03-18T19:22:16.732Z,8.87
2023-03-18T19:24:45.859Z,14.00
2023-03-18T19:27:29.733Z,9.13
2023-03-18T19:29:58.834Z,6.83
2023-03-18T19:32:26.735Z,4.67
2023-03-18T19:34:54.713Z,4.50
2023-03-18T19:37:27.277Z,4.70
2023-03-18T19:39:57.974Z,6.73
2023-03-18T19:42:25.976Z,12.27
2023-03-18T19:44:53.334Z,16.27
2023-03-18T19:47:20.868Z,10.00
2023-03-18T19:49:48.153Z,7.47
2023-03-18T19:52:20.411Z,4.93
2023-03-18T19:54:48.225Z,5.30
2023-03-18T19:57:18.158Z,4.27
2023-03-18T19:59:47.944Z,3.20
2023-03-18T20:02:20.108Z,3.90
2023-03-18T20:04:49.386Z,3.57
2023-03-18T20:07:17.375Z,3.30
2023-03-18T20:09:45.167Z,4.27
2023-03-18T20:12:31.198Z,15.80
2023-03-18T20:14:59.094Z,10.57
2023-03-18T20:17:31.136Z,7.33
2023-03-18T20:19:58.418Z,5.10
2023-03-18T20:22:40.197Z,4.50
2023-03-18T20:25:08.604Z,5.10
2023-03-18T20:27:36.045Z,5.40
2023-03-18T20:30:11.802Z,5.10
2023-03-18T20:32:39.110Z,5.43
2023-03-18T20:35:06.785Z,5.27
2023-03-18T20:37:34.979Z,3.70
2023-03-18T20:40:07.374Z,4.33
2023-03-18T20:42:34.763Z,3.93
2023-03-18T20:45:02.345Z,3.80
2023-03-18T20:47:29.594Z,3.60
2023-03-18T20:49:56.841Z,3.40
2023-03-18T20:52:26.752Z,3.60
2023-03-18T20:54:54.168Z,4.00
2023-03-18T20:57:21.456Z,5.30
2023-03-18T20:59:49.418Z,6.03
2023-03-18T21:02:31.197Z,3.80
2023-03-18T21:04:59.238Z,5.23
2023-03-18T21:07:26.892Z,5.50
2023-03-18T21:09:54.385Z,5.53
2023-03-18T21:12:22.106Z,5.90
2023-03-18T21:14:50.191Z,7.87
2023-03-18T21:17:21.435Z,10.80
2023-03-18T21:19:49.205Z,12.10
2023-03-18T21:22:21.605Z,11.00
2023-03-18T21:24:49.546Z,10.20
2023-03-18T21:27:21.135Z,9.90
2023-03-18T21:29:50.068Z,10.43
2023-03-18T21:32:22.358Z,11.43
2023-03-18T21:34:49.839Z,10.43
2023-03-18T21:37:17.972Z,11.57
2023-03-18T21:39:45.316Z,10.97
2023-03-18T21:42:20.252Z,10.40
2023-03-18T21:44:47.562Z,9.57
2023-03-18T21:47:19.419Z,9.33
2023-03-18T21:49:47.093Z,9.53
2023-03-18T21:52:19.427Z,9.27
2023-03-18T21:54:47.384Z,9.63
2023-03-18T21:57:18.703Z,9.20
2023-03-18T21:59:46.805Z,8.73
2023-03-18T22:02:34.348Z,8.93
2023-03-18T22:05:02.797Z,7.87
2023-03-18T22:07:31.443Z,7.00
2023-03-18T22:09:58.872Z,9.13
2023-03-18T22:12:27.602Z,8.93
2023-03-18T22:14:55.424Z,11.93
2023-03-18T22:17:31.906Z,12.70
2023-03-18T22:19:59.819Z,11.63
2023-03-18T22:22:37.069Z,9.90
2023-03-18T22:25:04.476Z,9.33
2023-03-18T22:27:32.353Z,8.97
2023-03-18T22:30:00.529Z,8.43
2023-03-18T22:32:41.464Z,8.93
2023-03-18T22:35:29.094Z,9.77
2023-03-18T22:37:56.862Z,9.10
2023-03-18T22:40:28.531Z,9.60
2023-03-18T22:42:56.769Z,8.90
2023-03-18T22:45:26.210Z,8.43
2023-03-18T22:47:54.416Z,8.33
2023-03-18T22:50:22.569Z,6.63
2023-03-18T22:52:51.073Z,7.57
2023-03-18T22:55:22.840Z,8.53
2023-03-18T22:57:50.717Z,7.80
2023-03-18T23:00:18.997Z,8.93
2023-03-18T23:02:46.310Z,8.07
2023-03-18T23:05:18.616Z,7.60
2023-03-18T23:07:45.848Z,7.47
2023-03-18T23:10:14.084Z,7.83
2023-03-18T23:12:43.437Z,7.60
2023-03-18T23:15:16.255Z,7.07
2023-03-18T23:17:43.629Z,7.17
2023-03-18T23:20:11.590Z,7.30
2023-03-18T23:22:39.233Z,8.57
2023-03-18T23:25:07.088Z,7.63
2023-03-18T23:27:34.698Z,8.33
2023-03-18T23:30:01.916Z,6.67
2023-03-18T23:32:29.355Z,6.17
2023-03-18T23:34:56.762Z,4.87
2023-03-18T23:37:24.480Z,4.60
2023-03-18T23:39:51.831Z,4.47
2023-03-18T23:42:19.952Z,4.50
2023-03-18T23:44:47.828Z,4.57
2023-03-18T23:47:16.003Z,4.50
2023-03-18T23:49:43.430Z,4.57
2023-03-18T23:52:15.088Z,4.70
2023-03-18T23:54:42.341Z,4.63
2023-03-18T23:57:11.032Z,4.60
2023-03-18T23:59:38.476Z,4.37
